Time;durP1;ratioP1;P1;durP2;ratioP2;P2;SDS_P1;SDS_P2;PMS_P1;PMS_P2;Temp;Humidity;BMP_temperature;BMP_pressure;BME280_temperature;BME280_humidity;BME280_pressure;Samples;Min_cycle;Max_cycle;Signal;HPM_P1;HPM_P2
2022/05/10 00:01:47;;;;;;;15.82;9.63;;;;;;;17.99;60.26;101925.53;5050544;28;20033;-51
2022/05/10 00:04:15;;;;;;;25.08;9.52;;;;;;;17.98;60.34;101929.41;5019823;28;20033;-50
2022/05/10 00:06:46;;;;;;;16.65;8.68;;;;;;;17.95;60.38;101922.56;5036977;28;20113;-49
2022/05/10 00:09:15;;;;;;;16.05;9.15;;;;;;;17.94;60.31;101922.84;5053731;28;20053;-49
2022/05/10 00:11:43;;;;;;;13.25;9.38;;;;;;;17.93;60.48;101921.22;5053725;28;20041;-48
2022/05/10 00:14:11;;;;;;;17.65;9.38;;;;;;;17.91;60.61;101924.25;5052900;28;20052;-48
2022/05/10 00:16:42;;;;;;;17.25;8.65;;;;;;;17.89;61.01;101920.94;5053778;28;20053;-50
2022/05/10 00:19:13;;;;;;;17.55;9.40;;;;;;;17.86;60.82;101916.03;5054355;28;20467;-48
2022/05/10 00:21:42;;;;;;;15.45;9.02;;;;;;;17.83;60.82;101919.38;5053588;28;20414;-51
2022/05/10 00:24:10;;;;;;;16.20;9.55;;;;;;;17.81;61.07;101914.13;5035388;28;20049;-49
2022/05/10 00:26:38;;;;;;;20.10;9.57;;;;;;;17.80;61.11;101917.16;5053282;28;20044;-50
2022/05/10 00:29:05;;;;;;;16.17;10.00;;;;;;;17.76;61.22;101911.41;5036749;28;20045;-49
2022/05/10 00:31:33;;;;;;;18.73;9.60;;;;;;;17.74;61.17;101907.28;5054315;28;20049;-50
2022/05/10 00:34:01;;;;;;;14.75;9.52;;;;;;;17.73;61.44;101908.41;5053760;28;20105;-51
2022/05/10 00:36:29;;;;;;;15.55;9.32;;;;;;;17.71;61.53;101914.22;5037323;28;20037;-51
2022/05/10 00:38:57;;;;;;;15.18;9.27;;;;;;;17.70;61.67;101901.50;5036755;28;20483;-50
2022/05/10 00:41:40;;;;;;;15.40;9.82;;;;;;;17.72;61.61;101907.56;5061923;28;20491;-48
2022/05/10 00:44:14;;;;;;;14.35;9.55;;;;;;;17.70;61.59;101903.47;5073028;28;20146;-50
2022/05/10 00:46:45;;;;;;;20.30;9.60;;;;;;;17.69;61.63;101905.41;5054420;28;20399;-50
2022/05/10 00:49:26;;;;;;;16.33;9.85;;;;;;;17.68;61.62;101903.78;5029186;28;20518;-52
2022/05/10 00:52:05;;;;;;;17.88;9.73;;;;;;;17.66;61.77;101900.47;5015662;28;20045;-49
2022/05/10 00:54:36;;;;;;;19.77;10.13;;;;;;;17.63;61.77;101901.88;5024048;28;20048;-52
2022/05/10 00:57:22;;;;;;;16.13;10.18;;;;;;;17.60;62.05;101891.41;5053011;28;20048;-50
2022/05/10 01:00:00;;;;;;;15.88;10.18;;;;;;;17.56;62.32;101890.38;5058609;28;20048;-51
2022/05/10 01:02:42;;;;;;;16.33;10.05;;;;;;;17.50;62.63;101894.25;5055661;28;20048;-50
2022/05/10 01:06:07;;;;;;;18.90;10.63;;;;;;;17.40;62.82;101881.41;5056397;28;20044;-49
2022/05/10 01:09:05;;;;;;;19.63;11.05;;;;;;;17.33;63.59;101888.34;5022914;28;20057;-49
2022/05/10 01:11:35;;;;;;;19.58;11.25;;;;;;;17.25;63.64;101882.34;5054941;28;20052;-49
2022/05/10 01:14:13;;;;;;;18.23;10.63;;;;;;;17.21;63.91;101880.44;5050240;28;20072;-48
2022/05/10 01:16:40;;;;;;;18.77;11.07;;;;;;;17.15;64.39;101873.31;5047385;28;20049;-48
2022/05/10 01:19:08;;;;;;;18.17;10.88;;;;;;;17.08;64.42;101870.06;5060957;28;20044;-49
2022/05/10 01:22:04;;;;;;;17.08;11.27;;;;;;;17.02;64.96;101870.09;5075276;28;20051;-49
2022/05/10 01:25:00;;;;;;;16.48;11.13;;;;;;;17.00;65.07;101866.84;5067668;28;20051;-50
2022/05/10 01:27:45;;;;;;;15.30;11.10;;;;;;;16.98;65.50;101868.19;5056005;28;20483;-49
2022/05/10 01:30:14;;;;;;;16.35;11.10;;;;;;;16.97;65.76;101859.13;5039135;28;20411;-50
2022/05/10 01:35:43;;;;;;;20.10;10.90;;;;;;;17.01;65.69;101856.66;5038581;28;20041;-50
2022/05/10 01:38:29;;;;;;;17.38;11.13;;;;;;;17.00;65.42;101861.34;5076593;28;20037;-50
2022/05/10 01:41:17;;;;;;;15.73;10.50;;;;;;;17.00;65.42;101850.31;5057563;28;20044;-48
2022/05/10 01:43:51;;;;;;;16.02;10.80;;;;;;;16.99;65.46;101853.34;5052142;28;20037;-50
2022/05/10 01:46:25;;;;;;;17.15;10.63;;;;;;;16.93;66.02;101847.06;5040001;28;20043;-50
2022/05/10 01:48:58;;;;;;;19.13;11.57;;;;;;;16.87;66.02;101845.44;5039733;28;20132;-50
2022/05/10 01:51:53;;;;;;;17.88;11.00;;;;;;;16.82;66.76;101837.22;5056374;28;20051;-50
2022/05/10 01:54:34;;;;;;;21.95;11.35;;;;;;;16.79;66.89;101837.81;5021524;28;20065;-47
2022/05/10 01:57:04;;;;;;;18.88;10.77;;;;;;;16.77;67.12;101829.78;5050468;28;20052;-53
2022/05/10 01:59:31;;;;;;;21.33;11.63;;;;;;;16.80;66.75;101831.19;5038690;28;20499;-50
2022/05/10 02:01:59;;;;;;;15.70;11.07;;;;;;;16.84;66.53;101829.50;5055844;28;20499;-50
2022/05/10 02:04:33;;;;;;;18.45;11.55;;;;;;;16.90;66.38;101833.03;5037502;28;20069;-52
2022/05/10 02:07:11;;;;;;;20.52;11.50;;;;;;;16.93;66.27;101827.78;5040633;28;20514;-50
2022/05/10 02:10:02;;;;;;;18.73;11.18;;;;;;;16.97;65.73;101822.53;5021821;28;20408;-47
2022/05/10 02:12:49;;;;;;;18.75;10.98;;;;;;;16.99;65.67;101828.56;5038032;28;20112;-47
2022/05/10 02:15:58;;;;;;;19.88;12.27;;;;;;;16.97;65.58;101814.25;5064455;28;20052;-50
2022/05/10 02:18:41;;;;;;;20.48;11.55;;;;;;;16.93;65.96;101813.19;5018256;28;20102;-51
2022/05/10 02:21:13;;;;;;;17.52;11.50;;;;;;;16.93;66.14;101818.69;5041565;28;20051;-50
2022/05/10 02:23:47;;;;;;;18.73;11.90;;;;;;;16.95;65.65;101810.97;5058045;28;20111;-50
2022/05/10 02:26:22;;;;;;;19.77;12.05;;;;;;;16.97;65.85;101806.81;5056505;28;20491;-50
2022/05/10 02:29:18;;;;;;;18.90;12.07;;;;;;;16.98;65.74;101808.47;5039690;28;20045;-49
2022/05/10 02:34:42;;;;;;;18.83;11.98;;;;;;;16.94;66.16;101792.81;5057926;28;20040;-51
2022/05/10 02:37:10;;;;;;;25.17;11.68;;;;;;;16.87;66.07;101795.88;5075620;28;20040;-50
2022/05/10 02:39:37;;;;;;;20.52;11.45;;;;;;;16.88;66.17;101793.97;5073315;28;20043;-53
2022/05/10 02:42:09;;;;;;;22.08;12.02;;;;;;;16.87;66.00;101779.38;5068757;28;20040;-49
2022/05/10 02:44:37;;;;;;;21.95;12.25;;;;;;;16.89;65.84;101795.63;5039408;28;20041;-50
2022/05/10 02:47:09;;;;;;;19.50;12.70;;;;;;;16.89;66.14;101788.19;5055138;28;20037;-50
2022/05/10 02:49:39;;;;;;;21.48;12.65;;;;;;;16.89;65.84;101785.41;5057762;28;20040;-50
2022/05/10 02:52:06;;;;;;;23.00;13.13;;;;;;;16.88;65.88;101783.75;5055953;28;20037;-50
2022/05/10 02:54:34;;;;;;;20.40;12.63;;;;;;;16.86;66.09;101782.41;5075648;28;20094;-51
2022/05/10 02:57:03;;;;;;;23.70;12.38;;;;;;;16.85;66.10;101778.84;5075511;28;20136;-50
2022/05/10 02:59:33;;;;;;;17.77;12.57;;;;;;;16.85;65.81;101775.28;5055946;28;20044;-52
2022/05/10 03:02:31;;;;;;;21.38;13.45;;;;;;;16.83;66.19;101768.09;5025445;28;20045;-50
2022/05/10 03:04:59;;;;;;;19.98;13.20;;;;;;;16.82;66.36;101776.66;5054758;28;20037;-52
2022/05/10 03:07:28;;;;;;;19.48;13.02;;;;;;;16.80;66.46;101771.44;5054826;28;20048;-52
2022/05/10 03:09:56;;;;;;;24.77;14.95;;;;;;;16.79;66.52;101771.75;5065682;28;20055;-49
2022/05/10 03:12:24;;;;;;;24.85;14.57;;;;;;;16.76;66.58;101767.59;5057483;28;20037;-51
2022/05/10 03:14:57;;;;;;;18.58;13.38;;;;;;;16.67;66.66;101762.97;5037610;28;20048;-51
2022/05/10 03:17:25;;;;;;;22.83;14.23;;;;;;;16.60;67.40;101772.38;5020477;28;20500;-51
2022/05/10 03:19:56;;;;;;;22.25;13.77;;;;;;;16.54;67.66;101768.00;5054549;28;20118;-50
2022/05/10 03:22:23;;;;;;;21.90;14.07;;;;;;;16.50;67.64;101764.19;5054565;28;20047;-47
2022/05/10 03:24:51;;;;;;;24.73;15.05;;;;;;;16.49;67.88;101759.78;5054303;28;20044;-48
2022/05/10 03:27:19;;;;;;;19.33;13.52;;;;;;;16.49;67.82;101754.28;5063838;28;20044;-47
2022/05/10 03:29:47;;;;;;;21.80;14.10;;;;;;;16.51;67.95;101751.25;5056904;28;20437;-47
2022/05/10 03:32:14;;;;;;;25.73;14.05;;;;;;;16.48;68.02;101752.66;5066975;28;20061;-47
2022/05/10 03:34:54;;;;;;;20.50;13.55;;;;;;;16.47;68.06;101753.75;5074499;28;20525;-48
2022/05/10 03:37:22;;;;;;;23.00;14.25;;;;;;;16.45;68.12;101761.50;5072303;28;20032;-51
2022/05/10 03:39:50;;;;;;;18.70;13.82;;;;;;;16.48;68.71;101741.66;5067201;28;20040;-49
2022/05/10 03:42:19;;;;;;;21.08;13.82;;;;;;;16.42;68.54;101751.03;5036314;28;20419;-49
2022/05/10 03:44:50;;;;;;;24.35;14.63;;;;;;;16.34;69.04;101746.13;5053970;28;20045;-50
2022/05/10 03:47:22;;;;;;;18.95;13.30;;;;;;;16.29;69.41;101748.94;5037961;28;20067;-51
2022/05/10 03:49:50;;;;;;;21.27;13.27;;;;;;;16.29;69.81;101748.94;5055031;28;20049;-50
2022/05/10 03:52:18;;;;;;;24.33;13.80;;;;;;;16.29;70.03;101737.94;5053930;28;20045;-52
2022/05/10 03:54:47;;;;;;;21.65;14.45;;;;;;;16.28;69.50;101745.34;5036757;28;20095;-50
2022/05/10 03:57:15;;;;;;;24.23;13.73;;;;;;;16.30;69.65;101743.13;5073966;28;20131;-50
2022/05/10 03:59:43;;;;;;;20.85;12.68;;;;;;;16.31;68.88;101733.78;5074009;28;20048;-52
2022/05/10 04:02:12;;;;;;;19.45;13.77;;;;;;;16.29;68.82;101736.00;5053574;28;20526;-49
2022/05/10 04:04:40;;;;;;;21.90;14.15;;;;;;;16.28;68.97;101739.81;5053079;28;20052;-50
2022/05/10 04:07:08;;;;;;;18.90;12.82;;;;;;;16.27;69.07;101732.69;5054002;28;20127;-50
2022/05/10 04:09:37;;;;;;;18.95;13.35;;;;;;;16.25;68.95;101729.41;5035368;28;20051;-49
2022/05/10 04:12:05;;;;;;;18.95;13.50;;;;;;;16.24;68.73;101729.72;5035938;28;20071;-51
2022/05/10 04:14:32;;;;;;;20.55;13.27;;;;;;;16.22;69.03;101729.16;5034119;28;20048;-50
2022/05/10 04:17:00;;;;;;;21.30;13.90;;;;;;;16.18;68.84;101735.22;5052965;28;20044;-50
2022/05/10 04:19:28;;;;;;;25.08;13.70;;;;;;;16.14;69.16;101731.41;5070052;28;20044;-49
2022/05/10 04:21:55;;;;;;;20.75;13.73;;;;;;;16.12;69.34;101733.63;5063838;28;20044;-50
2022/05/10 04:24:23;;;;;;;23.85;14.13;;;;;;;16.09;69.48;101725.94;5054408;28;20040;-47
2022/05/10 04:26:51;;;;;;;24.98;13.50;;;;;;;16.11;69.45;101739.38;5049917;28;20045;-50
2022/05/10 04:29:18;;;;;;;21.20;14.13;;;;;;;16.14;69.13;101736.09;5033357;28;20091;-51
2022/05/10 04:31:46;;;;;;;22.52;13.55;;;;;;;16.14;69.23;101725.91;5035456;28;20044;-50
2022/05/10 04:34:14;;;;;;;20.80;13.35;;;;;;;16.20;69.15;101732.19;5053092;28;20072;-51
2022/05/10 04:36:41;;;;;;;19.08;13.13;;;;;;;16.24;69.36;101724.22;5052885;28;20049;-53
2022/05/10 04:39:09;;;;;;;19.25;13.65;;;;;;;16.22;69.27;101723.66;5053595;28;20052;-53
2022/05/10 04:41:38;;;;;;;26.10;13.57;;;;;;;16.18;68.88;101726.97;5052500;28;20045;-49
2022/05/10 04:44:08;;;;;;;22.35;14.68;;;;;;;16.15;69.08;101719.28;5037025;28;20044;-51
2022/05/10 04:46:38;;;;;;;20.13;13.45;;;;;;;16.19;69.24;101720.38;5052734;28;20047;-49
2022/05/10 04:49:08;;;;;;;19.73;12.90;;;;;;;16.24;69.04;101721.47;5035200;28;20045;-51
2022/05/10 04:51:36;;;;;;;19.60;12.77;;;;;;;16.25;69.03;101717.59;5052910;28;20047;-53
2022/05/10 04:54:04;;;;;;;21.48;13.27;;;;;;;16.23;68.76;101719.81;5064483;28;20036;-53
2022/05/10 04:56:32;;;;;;;20.63;12.93;;;;;;;16.19;69.11;101717.63;5053366;28;20033;-52
2022/05/10 04:59:00;;;;;;;24.02;14.40;;;;;;;16.19;69.39;101714.88;5073067;28;20036;-52
2022/05/10 05:01:29;;;;;;;24.67;13.95;;;;;;;16.21;69.16;101716.50;5072659;28;20052;-51
2022/05/10 05:03:59;;;;;;;22.63;13.40;;;;;;;16.23;69.22;101722.56;5070065;28;20045;-50
2022/05/10 05:06:28;;;;;;;22.25;14.15;;;;;;;16.25;68.74;101710.16;5073000;28;20071;-54
2022/05/10 05:08:57;;;;;;;23.42;14.45;;;;;;;16.26;68.81;101713.72;5071064;28;20071;-50
2022/05/10 05:11:25;;;;;;;20.33;13.75;;;;;;;16.28;68.83;101708.75;5070668;28;20040;-52
2022/05/10 05:13:53;;;;;;;23.45;14.95;;;;;;;16.32;68.80;101712.59;5020202;28;20483;-51
2022/05/10 05:16:21;;;;;;;22.50;14.93;;;;;;;16.35;68.80;101717.53;5061822;28;20120;-50
2022/05/10 05:18:49;;;;;;;24.20;15.80;;;;;;;16.36;68.61;101713.69;5054822;28;20060;-51
2022/05/10 05:21:17;;;;;;;28.50;16.00;;;;;;;16.31;68.98;101720.03;5055115;28;20051;-51
2022/05/10 05:23:45;;;;;;;29.27;17.30;;;;;;;16.29;69.31;101724.19;5052350;28;20034;-50
2022/05/10 05:26:13;;;;;;;24.15;15.98;;;;;;;16.27;69.46;101729.13;5053647;28;20072;-52
2022/05/10 05:28:40;;;;;;;22.50;15.82;;;;;;;16.26;69.23;101720.06;5070200;28;20043;-49
2022/05/10 05:31:09;;;;;;;26.20;16.85;;;;;;;16.27;69.14;101718.13;5072533;28;20052;-49
2022/05/10 05:33:38;;;;;;;27.08;17.35;;;;;;;16.24;69.27;101718.72;5042782;28;20041;-51
2022/05/10 05:36:06;;;;;;;30.65;18.30;;;;;;;16.25;69.41;101723.09;4349104;28;10000573;-50
2022/05/10 05:38:35;;;;;;;25.15;15.63;;;;;;;16.25;69.32;101723.91;5047360;28;20053;-53
2022/05/10 05:41:03;;;;;;;28.38;17.63;;;;;;;16.28;69.51;101722.50;5069427;28;20564;-54
2022/05/10 05:43:31;;;;;;;32.28;18.90;;;;;;;16.28;69.35;101728.84;5050798;28;20044;-50
2022/05/10 05:45:59;;;;;;;28.90;17.48;;;;;;;16.29;69.80;101716.75;5050215;28;20488;-48
2022/05/10 05:48:26;;;;;;;29.15;16.30;;;;;;;16.35;69.73;101717.53;5067302;28;20075;-47
2022/05/10 05:50:54;;;;;;;23.55;16.30;;;;;;;16.39;69.83;101713.09;5051407;28;20521;-49
2022/05/10 05:53:22;;;;;;;27.70;17.63;;;;;;;16.37;70.43;101709.81;5055009;28;20045;-48
2022/05/10 05:55:49;;;;;;;25.58;16.25;;;;;;;16.44;69.89;101713.06;5053997;28;20040;-49
2022/05/10 05:58:17;;;;;;;24.58;16.88;;;;;;;16.48;70.16;101716.91;5054347;28;20045;-49
2022/05/10 06:00:45;;;;;;;27.38;17.35;;;;;;;16.46;70.57;101708.09;5052934;28;20253;-49
2022/05/10 06:03:13;;;;;;;24.33;15.60;;;;;;;16.52;70.07;101714.38;5053636;28;20049;-48
2022/05/10 06:05:41;;;;;;;23.02;12.50;;;;;;;16.57;70.07;101706.09;5051793;28;20041;-47
2022/05/10 06:08:09;;;;;;;22.58;14.45;;;;;;;16.56;70.20;101702.50;5053703;28;20041;-49
2022/05/10 06:10:38;;;;;;;19.48;12.40;;;;;;;16.58;70.41;101694.81;5053641;28;20464;-51
2022/05/10 06:13:06;;;;;;;27.55;14.32;;;;;;;16.61;70.03;101690.66;5053174;28;20526;-49
2022/05/10 06:15:34;;;;;;;24.20;14.75;;;;;;;16.65;70.11;101693.66;5034867;28;20060;-49
2022/05/10 06:18:04;;;;;;;24.60;14.48;;;;;;;16.69;70.37;101697.47;5045339;28;20056;-48
2022/05/10 06:20:32;;;;;;;25.45;14.57;;;;;;;16.71;70.49;101698.00;5052762;28;20075;-49
2022/05/10 06:23:01;;;;;;;24.35;13.80;;;;;;;16.76;70.33;101700.72;5032266;28;20573;-49
2022/05/10 06:25:29;;;;;;;24.95;13.35;;;;;;;16.80;70.32;101697.13;5034879;28;20047;-51
2022/05/10 06:27:58;;;;;;;18.42;13.27;;;;;;;16.88;69.57;101703.13;5054757;28;20029;-50
2022/05/10 06:30:26;;;;;;;19.13;13.52;;;;;;;16.90;69.94;101693.44;5053379;28;20045;-48
2022/05/10 06:32:57;;;;;;;36.63;21.88;;;;;;;16.94;70.14;101701.97;5036925;28;20037;-49
2022/05/10 06:35:25;;;;;;;37.60;26.33;;;;;;;17.01;69.77;101694.19;5033397;28;20496;-52
2022/05/10 06:40:41;;;;;;;17.70;11.13;;;;;;;17.11;69.15;101682.25;5027109;28;20051;-50
2022/05/10 06:43:09;;;;;;;15.63;10.05;;;;;;;17.16;68.36;101683.00;5061409;28;20415;-50
2022/05/10 06:45:37;;;;;;;18.75;11.43;;;;;;;17.20;68.77;101680.50;5034430;28;20044;-51
2022/05/10 06:48:09;;;;;;;17.25;11.50;;;;;;;17.21;68.90;101671.94;5034662;28;20041;-54
2022/05/10 06:50:37;;;;;;;19.45;10.93;;;;;;;17.25;68.52;101681.28;5039408;28;20052;-51
2022/05/10 06:53:05;;;;;;;20.88;11.40;;;;;;;17.31;68.34;101676.53;5054416;28;20043;-51
2022/05/10 06:55:34;;;;;;;19.52;8.73;;;;;;;17.36;67.71;101675.66;5055255;28;20049;-48
2022/05/10 06:58:03;;;;;;;16.95;9.55;;;;;;;17.41;67.61;101668.16;5036678;28;20049;-50
2022/05/10 07:00:36;;;;;;;15.82;8.00;;;;;;;17.45;66.53;101671.94;5056256;28;20037;-49
2022/05/10 07:03:10;;;;;;;14.15;7.05;;;;;;;17.54;66.76;101671.31;5053963;28;20040;-53
2022/05/10 07:05:38;;;;;;;15.63;10.60;;;;;;;17.58;66.95;101672.34;5049660;28;20120;-53
2022/05/10 07:08:05;;;;;;;14.80;8.30;;;;;;;17.65;66.46;101659.03;5017288;28;20041;-56
2022/05/10 07:10:33;;;;;;;15.52;7.30;;;;;;;17.75;65.55;101661.66;5047175;28;20049;-52
2022/05/10 07:13:01;;;;;;;12.73;7.50;;;;;;;17.75;65.79;101661.66;5036749;28;20038;-50
2022/05/10 07:15:30;;;;;;;14.80;8.75;;;;;;;17.76;66.18;101662.50;5037996;28;20048;-49
2022/05/10 07:17:57;;;;;;;11.07;6.10;;;;;;;17.77;65.15;101655.84;5004006;28;20488;-50
2022/05/10 07:20:25;;;;;;;14.55;9.55;;;;;;;17.78;66.48;101658.31;5023826;28;20037;-51
2022/05/10 07:22:53;;;;;;;13.50;8.45;;;;;;;17.87;65.34;101650.22;5053834;28;20045;-51
2022/05/10 07:25:24;;;;;;;19.70;7.78;;;;;;;17.96;65.00;101644.88;5065421;28;20041;-53
2022/05/10 07:27:52;;;;;;;12.10;6.57;;;;;;;18.05;64.04;101651.34;5040371;28;20049;-51
2022/05/10 07:30:20;;;;;;;13.10;6.32;;;;;;;18.16;63.83;101641.81;5051371;28;20090;-54
2022/05/10 07:32:48;;;;;;;14.98;6.85;;;;;;;18.25;64.43;101648.28;5055724;28;20044;-53
2022/05/10 07:35:17;;;;;;;18.45;9.13;;;;;;;18.26;65.12;101647.16;5054223;28;20045;-53
2022/05/10 07:37:44;;;;;;;13.38;7.57;;;;;;;18.24;64.85;101643.88;5035575;28;20044;-49
2022/05/10 07:40:12;;;;;;;15.50;7.75;;;;;;;18.24;65.31;101643.06;5054206;28;20041;-50
2022/05/10 07:42:41;;;;;;;17.10;7.60;;;;;;;18.30;65.00;101639.94;5055475;28;20045;-53
2022/05/10 07:45:10;;;;;;;17.92;7.28;;;;;;;18.40;64.75;101633.44;5036511;28;20052;-53
2022/05/10 07:47:43;;;;;;;13.75;7.45;;;;;;;18.52;64.77;101635.72;5054837;28;20080;-49
2022/05/10 07:50:17;;;;;;;12.63;6.15;;;;;;;18.48;64.33;101634.69;5054003;28;20045;-51
2022/05/10 07:52:45;;;;;;;12.75;6.00;;;;;;;18.49;64.42;101639.06;5051194;28;20034;-48
2022/05/10 07:55:13;;;;;;;14.88;6.50;;;;;;;18.48;64.52;101631.94;5041363;28;20052;-49
2022/05/10 07:57:43;;;;;;;12.80;5.65;;;;;;;18.47;64.20;101638.56;5052385;28;20127;-51
2022/05/10 08:00:13;;;;;;;13.05;5.57;;;;;;;18.52;64.30;101632.97;5054726;28;20507;-48
2022/05/10 08:02:43;;;;;;;15.40;5.72;;;;;;;18.53;64.03;101629.06;5055224;28;20052;-54
2022/05/10 08:05:16;;;;;;;11.10;5.38;;;;;;;18.54;64.13;101627.94;5036765;28;20045;-52
2022/05/10 08:07:44;;;;;;;14.90;6.03;;;;;;;18.56;63.95;101631.22;5035896;28;20055;-50
2022/05/10 08:10:12;;;;;;;12.90;6.45;;;;;;;18.61;63.99;101627.56;5053701;28;20041;-50
2022/05/10 08:12:39;;;;;;;13.52;6.82;;;;;;;18.68;63.97;101626.03;5054537;28;20049;-53
2022/05/10 08:15:08;;;;;;;14.48;6.30;;;;;;;18.74;63.72;101627.59;5054390;28;20057;-50
2022/05/10 08:17:36;;;;;;;12.00;5.60;;;;;;;18.78;63.55;101621.50;5053027;28;20047;-51
2022/05/10 08:20:05;;;;;;;14.90;6.80;;;;;;;18.86;63.57;101613.34;5053872;28;20048;-50
2022/05/10 08:22:33;;;;;;;11.90;5.68;;;;;;;18.89;63.60;101618.25;5018595;28;20132;-53
2022/05/10 08:25:01;;;;;;;10.18;5.78;;;;;;;18.90;63.59;101619.06;5054881;28;20036;-49
2022/05/10 08:27:29;;;;;;;12.77;6.07;;;;;;;18.97;63.42;101616.72;5053555;28;20048;-51
2022/05/10 08:29:57;;;;;;;10.52;4.75;;;;;;;19.04;63.14;101617.13;5035283;28;20044;-50
2022/05/10 08:32:25;;;;;;;13.73;5.90;;;;;;;19.09;62.57;101617.03;5052669;28;20483;-56
2022/05/10 08:34:52;;;;;;;10.85;5.88;;;;;;;19.10;62.91;101613.16;5032578;28;20033;-50
2022/05/10 08:37:20;;;;;;;13.35;6.60;;;;;;;19.13;62.40;101609.78;5053616;28;20509;-50
2022/05/10 08:39:47;;;;;;;11.25;6.90;;;;;;;19.05;63.09;101613.25;5052893;28;20045;-52
2022/05/10 08:42:28;;;;;;;15.93;6.10;;;;;;;19.00;63.13;101618.03;5054161;28;20041;-51
2022/05/10 08:45:00;;;;;;;13.75;5.60;;;;;;;19.06;62.62;101616.84;5055268;28;20052;-52
2022/05/10 08:47:28;;;;;;;11.00;5.65;;;;;;;19.11;62.13;101613.97;5055337;28;20115;-49
2022/05/10 08:50:05;;;;;;;11.98;5.88;;;;;;;19.08;62.42;101609.06;5071190;28;20036;-50
2022/05/10 08:52:53;;;;;;;11.10;5.10;;;;;;;19.04;62.52;101603.31;5056406;28;20036;-52
2022/05/10 08:55:29;;;;;;;10.98;5.88;;;;;;;19.02;62.48;101605.56;5072889;28;20449;-50
2022/05/10 08:57:56;;;;;;;8.63;5.25;;;;;;;19.04;62.75;101595.03;5055302;28;20127;-51
2022/05/10 09:00:30;;;;;;;14.30;6.25;;;;;;;19.10;62.63;101588.28;5072787;28;20041;-50
2022/05/10 09:03:00;;;;;;;10.65;5.55;;;;;;;19.19;62.40;101591.13;5070812;28;20044;-51
2022/05/10 09:05:39;;;;;;;9.57;4.85;;;;;;;19.24;61.96;101592.97;5054615;28;20067;-50
2022/05/10 09:08:10;;;;;;;11.45;5.22;;;;;;;19.32;61.74;101597.81;5046993;28;20045;-49
2022/05/10 09:10:54;;;;;;;10.77;5.35;;;;;;;19.31;61.43;101591.47;5036005;28;20411;-49
2022/05/10 09:13:22;;;;;;;14.40;5.93;;;;;;;19.34;60.79;101593.59;5035433;28;20041;-51
2022/05/10 09:16:00;;;;;;;13.57;5.88;;;;;;;19.34;60.90;101595.56;5069127;28;20454;-49
2022/05/10 09:18:40;;;;;;;10.20;4.75;;;;;;;19.38;60.67;101588.25;5055361;28;20110;-49
2022/05/10 09:21:47;;;;;;;14.15;5.57;;;;;;;19.45;59.96;101585.91;5055038;28;20240;-49
2022/05/10 09:24:37;;;;;;;16.20;6.43;;;;;;;19.49;60.07;101586.91;5070899;28;20044;-49
2022/05/10 09:27:10;;;;;;;17.48;6.18;;;;;;;19.51;59.70;101581.91;5072012;28;20131;-50
2022/05/10 09:29:50;;;;;;;10.52;5.93;;;;;;;19.61;58.98;101574.53;5059320;28;20045;-46
2022/05/10 09:35:12;;;;;;;14.07;6.00;;;;;;;19.74;57.70;101570.91;5074761;28;20032;-50
2022/05/10 09:37:50;;;;;;;10.80;5.43;;;;;;;19.76;58.17;101566.72;5076549;28;20136;-53
2022/05/10 09:40:18;;;;;;;9.82;5.10;;;;;;;19.79;57.99;101563.34;5074716;28;20032;-49
2022/05/10 09:42:51;;;;;;;7.32;4.10;;;;;;;19.84;58.16;101569.84;5076274;28;20041;-50
2022/05/10 09:45:27;;;;;;;13.82;5.22;;;;;;;19.88;57.49;101559.81;5074705;28;20509;-50
2022/05/10 09:48:16;;;;;;;14.32;5.30;;;;;;;19.89;57.26;101565.03;5067488;28;20045;-47
2022/05/10 09:50:51;;;;;;;10.05;4.80;;;;;;;19.99;57.48;101563.97;5056383;28;20049;-50
2022/05/10 09:53:31;;;;;;;18.45;5.50;;;;;;;20.05;56.04;101564.66;5057418;28;20510;-51
2022/05/10 09:56:03;;;;;;;10.77;5.30;;;;;;;20.14;55.75;101557.25;5039655;28;20032;-52
2022/05/10 09:58:42;;;;;;;11.65;5.13;;;;;;;20.20;55.28;101551.28;5056394;28;20037;-52
2022/05/10 10:01:15;;;;;;;14.07;5.00;;;;;;;20.22;55.44;101560.06;5038949;28;20381;-53
2022/05/10 10:03:45;;;;;;;7.70;4.38;;;;;;;20.22;56.10;101553.72;5056077;28;20041;-51
2022/05/10 10:06:22;;;;;;;11.73;4.53;;;;;;;20.30;56.39;101549.34;5060358;28;20036;-52
2022/05/10 10:08:57;;;;;;;14.02;5.68;;;;;;;20.36;56.01;101546.16;5072193;28;20418;-51
2022/05/10 10:11:31;;;;;;;12.40;5.80;;;;;;;20.42;55.70;101536.59;5059669;28;20120;-51
2022/05/10 10:14:06;;;;;;;24.00;10.75;;;;;;;20.42;56.11;101553.19;5059089;28;20045;-50
2022/05/10 10:16:48;;;;;;;13.05;5.88;;;;;;;20.43;55.53;101540.16;5071783;28;20123;-51
2022/05/10 10:19:31;;;;;;;14.52;7.60;;;;;;;20.43;55.85;101543.75;5038898;28;20400;-48
2022/05/10 10:22:07;;;;;;;12.40;5.97;;;;;;;20.43;55.88;101549.28;5055885;28;20040;-51
2022/05/10 10:24:54;;;;;;;9.93;5.90;;;;;;;20.54;55.40;101537.94;5055743;28;20044;-51
2022/05/10 10:27:43;;;;;;;13.70;5.50;;;;;;;20.64;56.06;101532.16;5056784;28;20041;-52
2022/05/10 10:30:29;;;;;;;13.45;6.35;;;;;;;20.73;54.99;101524.69;5021492;28;20396;-52
2022/05/10 10:33:02;;;;;;;13.18;6.07;;;;;;;20.81;54.66;101532.22;5053332;28;20214;-52
2022/05/10 10:35:46;;;;;;;13.52;5.65;;;;;;;20.90;54.57;101526.72;5054812;28;20866;-50
2022/05/10 10:38:28;;;;;;;11.98;5.50;;;;;;;20.96;53.83;101521.84;5022859;28;20037;-51
2022/05/10 10:41:05;;;;;;;12.52;4.78;;;;;;;21.00;54.00;101522.84;5024913;28;20419;-53
2022/05/10 10:44:03;;;;;;;16.30;5.60;;;;;;;20.99;54.46;101512.88;5033238;28;20046;-51
2022/05/10 10:46:58;;;;;;;14.65;5.43;;;;;;;21.01;54.68;101513.38;5051657;28;20041;-54
2022/05/10 10:49:39;;;;;;;12.65;5.72;;;;;;;21.10;53.61;101511.47;5033857;28;20120;-51
2022/05/10 10:52:07;;;;;;;12.57;5.40;;;;;;;21.14;53.51;101506.91;5028284;28;20237;-51
2022/05/10 10:54:36;;;;;;;10.32;5.82;;;;;;;21.21;53.51;101504.47;5019663;28;20041;-52
2022/05/10 10:57:08;;;;;;;15.77;5.60;;;;;;;21.26;52.80;101495.16;5052644;28;20089;-53
2022/05/10 10:59:54;;;;;;;20.67;5.20;;;;;;;21.34;51.99;101507.44;5053134;28;20045;-52
2022/05/10 11:02:43;;;;;;;8.02;4.13;;;;;;;21.34;53.43;101501.88;5053138;28;20043;-54
2022/05/10 11:05:28;;;;;;;14.05;4.90;;;;;;;21.38;50.18;101502.84;5035208;28;20056;-52
2022/05/10 11:08:11;;;;;;;7.47;4.45;;;;;;;21.53;49.28;101507.97;5050620;28;20513;-52
2022/05/10 11:10:47;;;;;;;12.20;5.18;;;;;;;21.63;49.16;101493.75;5052531;28;20127;-53
2022/05/10 11:13:38;;;;;;;16.00;5.18;;;;;;;21.62;49.22;101491.31;5074494;28;20119;-52
2022/05/10 11:16:22;;;;;;;10.77;5.32;;;;;;;21.64;49.70;101489.84;5062264;28;20057;-50
2022/05/10 11:19:14;;;;;;;11.77;5.57;;;;;;;21.68;49.41;101492.78;5039575;28;20115;-52
2022/05/10 11:21:44;;;;;;;14.15;5.60;;;;;;;21.79;48.33;101490.47;5055013;28;20051;-52
2022/05/10 11:24:44;;;;;;;10.00;5.00;;;;;;;21.91;48.61;101491.47;5074755;28;20044;-51
2022/05/10 11:27:29;;;;;;;11.05;5.03;;;;;;;21.97;48.47;101478.22;5057037;28;20049;-51
2022/05/10 11:30:21;;;;;;;12.85;4.97;;;;;;;22.01;48.82;101478.41;5072739;28;20056;-51
2022/05/10 11:33:21;;;;;;;10.10;4.85;;;;;;;22.01;48.89;101472.84;5054583;28;20071;-53
2022/05/10 11:36:16;;;;;;;11.40;5.10;;;;;;;21.91;49.17;101468.44;5061886;28;20138;-51
2022/05/10 11:39:01;;;;;;;12.95;5.20;;;;;;;21.84;50.18;101468.09;5054568;28;20416;-51
2022/05/10 11:41:45;;;;;;;11.55;5.03;;;;;;;21.84;50.09;101473.66;5055579;28;20033;-52
2022/05/10 11:44:29;;;;;;;13.57;5.45;;;;;;;21.87;49.40;101468.28;5036523;28;20050;-51
2022/05/10 11:47:05;;;;;;;11.15;6.40;;;;;;;21.91;49.10;101457.31;5053719;28;20037;-50
2022/05/10 11:49:50;;;;;;;10.02;5.25;;;;;;;21.91;49.32;101460.09;5053804;28;20132;-50
2022/05/10 11:52:35;;;;;;;15.07;5.18;;;;;;;21.91;49.94;101451.78;5049126;28;20031;-52
2022/05/10 11:55:37;;;;;;;13.35;5.45;;;;;;;22.00;49.72;101460.91;5060638;28;20041;-52